sensor_id;sensor_type;location;lat;lon;timestamp;temperature;humidity
22781;DHT22;11557;50.884;4.322;2022-11-24T00:01:36;9.90;99.90
22781;DHT22;11557;50.884;4.322;2022-11-24T00:04:04;10.60;99.90
22781;DHT22;11557;50.884;4.322;2022-11-24T00:06:31;9.90;99.90
22781;DHT22;11557;50.884;4.322;2022-11-24T00:08:58;10.40;99.90
22781;DHT22;11557;50.884;4.322;2022-11-24T00:11:26;9.80;99.90
22781;DHT22;11557;50.884;4.322;2022-11-24T00:13:52;10.30;99.90
22781;DHT22;11557;50.884;4.322;2022-11-24T00:18:45;9.90;99.90
22781;DHT22;11557;50.884;4.322;2022-11-24T00:21:12;10.60;99.90
22781;DHT22;11557;50.884;4.322;2022-11-24T00:23:38;9.70;99.90
22781;DHT22;11557;50.884;4.322;2022-11-24T00:26:16;9.80;99.90
22781;DHT22;11557;50.884;4.322;2022-11-24T00:28:42;10.30;99.90
22781;DHT22;11557;50.884;4.322;2022-11-24T00:31:21;10.30;99.90
22781;DHT22;11557;50.884;4.322;2022-11-24T00:33:49;9.80;99.90
22781;DHT22;11557;50.884;4.322;2022-11-24T00:36:15;10.50;99.90
22781;DHT22;11557;50.884;4.322;2022-11-24T00:38:41;10.20;99.90
22781;DHT22;11557;50.884;4.322;2022-11-24T00:41:07;9.80;99.90
22781;DHT22;11557;50.884;4.322;2022-11-24T00:43:33;11.00;99.90
22781;DHT22;11557;50.884;4.322;2022-11-24T00:45:58;9.90;99.90
22781;DHT22;11557;50.884;4.322;2022-11-24T00:48:24;9.90;99.90
22781;DHT22;11557;50.884;4.322;2022-11-24T00:51:04;10.20;99.90
22781;DHT22;11557;50.884;4.322;2022-11-24T00:53:31;10.00;99.90
22781;DHT22;11557;50.884;4.322;2022-11-24T00:55:56;11.00;99.90
22781;DHT22;11557;50.884;4.322;2022-11-24T00:58:23;10.00;99.90
22781;DHT22;11557;50.884;4.322;2022-11-24T01:00:49;10.70;99.90
22781;DHT22;11557;50.884;4.322;2022-11-24T01:03:18;10.40;99.90
22781;DHT22;11557;50.884;4.322;2022-11-24T01:05:44;9.90;99.90
22781;DHT22;11557;50.884;4.322;2022-11-24T01:08:11;9.90;99.90
22781;DHT22;11557;50.884;4.322;2022-11-24T01:10:37;10.10;99.90
22781;DHT22;11557;50.884;4.322;2022-11-24T01:13:02;10.80;99.90
22781;DHT22;11557;50.884;4.322;2022-11-24T01:15:28;10.00;99.90
22781;DHT22;11557;50.884;4.322;2022-11-24T01:17:55;10.60;99.90
22781;DHT22;11557;50.884;4.322;2022-11-24T01:20:20;10.10;99.90
22781;DHT22;11557;50.884;4.322;2022-11-24T01:22:47;11.20;99.90
22781;DHT22;11557;50.884;4.322;2022-11-24T01:25:13;10.30;99.90
22781;DHT22;11557;50.884;4.322;2022-11-24T01:27:39;10.90;99.90
22781;DHT22;11557;50.884;4.322;2022-11-24T01:30:07;11.50;99.90
22781;DHT22;11557;50.884;4.322;2022-11-24T01:32:33;10.20;99.90
22781;DHT22;11557;50.884;4.322;2022-11-24T01:35:03;10.20;99.90
22781;DHT22;11557;50.884;4.322;2022-11-24T01:37:29;10.10;99.90
22781;DHT22;11557;50.884;4.322;2022-11-24T01:39:55;10.40;99.90
22781;DHT22;11557;50.884;4.322;2022-11-24T01:42:21;10.70;99.90
22781;DHT22;11557;50.884;4.322;2022-11-24T01:44:48;11.00;99.90
22781;DHT22;11557;50.884;4.322;2022-11-24T01:47:35;10.10;99.90
22781;DHT22;11557;50.884;4.322;2022-11-24T01:50:03;10.20;99.90
22781;DHT22;11557;50.884;4.322;2022-11-24T01:52:33;10.20;99.90
22781;DHT22;11557;50.884;4.322;2022-11-24T01:55:05;11.00;99.90
22781;DHT22;11557;50.884;4.322;2022-11-24T01:57:35;10.30;99.90
22781;DHT22;11557;50.884;4.322;2022-11-24T02:00:05;10.60;99.90
22781;DHT22;11557;50.884;4.322;2022-11-24T02:02:32;10.20;99.90
22781;DHT22;11557;50.884;4.322;2022-11-24T02:05:01;10.30;99.90
22781;DHT22;11557;50.884;4.322;2022-11-24T02:07:29;10.30;99.90
22781;DHT22;11557;50.884;4.322;2022-11-24T02:10:03;11.50;99.90
22781;DHT22;11557;50.884;4.322;2022-11-24T02:12:31;10.40;99.90
22781;DHT22;11557;50.884;4.322;2022-11-24T02:14:57;10.40;99.90
22781;DHT22;11557;50.884;4.322;2022-11-24T02:17:23;10.30;99.90
22781;DHT22;11557;50.884;4.322;2022-11-24T02:19:57;11.60;99.90
22781;DHT22;11557;50.884;4.322;2022-11-24T02:22:36;10.30;99.90
22781;DHT22;11557;50.884;4.322;2022-11-24T02:25:31;10.80;99.90
22781;DHT22;11557;50.884;4.322;2022-11-24T02:28:01;10.30;99.90
22781;DHT22;11557;50.884;4.322;2022-11-24T02:30:29;10.90;99.90
22781;DHT22;11557;50.884;4.322;2022-11-24T02:32:55;10.70;99.90
22781;DHT22;11557;50.884;4.322;2022-11-24T02:35:21;10.20;99.90
22781;DHT22;11557;50.884;4.322;2022-11-24T02:37:47;10.30;99.90
22781;DHT22;11557;50.884;4.322;2022-11-24T02:40:19;11.00;99.90
22781;DHT22;11557;50.884;4.322;2022-11-24T02:42:49;11.30;99.90
22781;DHT22;11557;50.884;4.322;2022-11-24T02:45:18;10.30;99.90
22781;DHT22;11557;50.884;4.322;2022-11-24T02:47:43;10.20;99.90
22781;DHT22;11557;50.884;4.322;2022-11-24T02:50:10;10.20;99.90
22781;DHT22;11557;50.884;4.322;2022-11-24T02:52:36;10.30;99.90
22781;DHT22;11557;50.884;4.322;2022-11-24T02:55:02;10.10;99.90
22781;DHT22;11557;50.884;4.322;2022-11-24T02:57:28;10.10;99.90
22781;DHT22;11557;50.884;4.322;2022-11-24T02:59:54;11.20;99.90
22781;DHT22;11557;50.884;4.322;2022-11-24T03:02:19;10.40;99.90
22781;DHT22;11557;50.884;4.322;2022-11-24T03:04:45;10.50;99.90
22781;DHT22;11557;50.884;4.322;2022-11-24T03:07:11;10.00;99.90
22781;DHT22;11557;50.884;4.322;2022-11-24T03:09:36;10.00;99.90
22781;DHT22;11557;50.884;4.322;2022-11-24T03:12:03;10.70;99.90
22781;DHT22;11557;50.884;4.322;2022-11-24T03:14:28;10.00;99.90
22781;DHT22;11557;50.884;4.322;2022-11-24T03:16:54;10.00;99.90
22781;DHT22;11557;50.884;4.322;2022-11-24T03:19:19;10.90;99.90
22781;DHT22;11557;50.884;4.322;2022-11-24T03:21:45;11.20;99.90
22781;DHT22;11557;50.884;4.322;2022-11-24T03:24:11;10.40;99.90
22781;DHT22;11557;50.884;4.322;2022-11-24T03:26:36;10.70;99.90
22781;DHT22;11557;50.884;4.322;2022-11-24T03:29:02;10.00;99.90
22781;DHT22;11557;50.884;4.322;2022-11-24T03:31:27;10.60;99.90
22781;DHT22;11557;50.884;4.322;2022-11-24T03:33:53;10.10;99.90
22781;DHT22;11557;50.884;4.322;2022-11-24T03:36:19;11.50;99.90
22781;DHT22;11557;50.884;4.322;2022-11-24T03:38:44;10.50;99.90
22781;DHT22;11557;50.884;4.322;2022-11-24T03:41:10;11.60;99.90
22781;DHT22;11557;50.884;4.322;2022-11-24T03:43:36;10.20;99.90
22781;DHT22;11557;50.884;4.322;2022-11-24T03:46:03;10.20;99.90
22781;DHT22;11557;50.884;4.322;2022-11-24T03:48:28;10.20;99.90
22781;DHT22;11557;50.884;4.322;2022-11-24T03:50:59;10.70;99.90
22781;DHT22;11557;50.884;4.322;2022-11-24T03:53:26;9.90;99.90
22781;DHT22;11557;50.884;4.322;2022-11-24T03:55:52;9.90;99.90
22781;DHT22;11557;50.884;4.322;2022-11-24T03:58:18;10.70;99.90
22781;DHT22;11557;50.884;4.322;2022-11-24T04:00:45;10.50;99.90
22781;DHT22;11557;50.884;4.322;2022-11-24T04:03:10;10.80;99.90
22781;DHT22;11557;50.884;4.322;2022-11-24T04:05:36;11.10;99.90
22781;DHT22;11557;50.884;4.322;2022-11-24T04:08:05;9.90;99.90
22781;DHT22;11557;50.884;4.322;2022-11-24T04:10:32;9.90;99.90
22781;DHT22;11557;50.884;4.322;2022-11-24T04:12:58;9.80;99.90
22781;DHT22;11557;50.884;4.322;2022-11-24T04:15:24;9.80;99.90
22781;DHT22;11557;50.884;4.322;2022-11-24T04:17:50;9.90;99.90
22781;DHT22;11557;50.884;4.322;2022-11-24T04:20:18;10.70;99.90
22781;DHT22;11557;50.884;4.322;2022-11-24T04:22:45;9.70;99.90
22781;DHT22;11557;50.884;4.322;2022-11-24T04:25:11;9.60;99.90
22781;DHT22;11557;50.884;4.322;2022-11-24T04:27:37;10.40;99.90
22781;DHT22;11557;50.884;4.322;2022-11-24T04:30:04;9.70;99.90
22781;DHT22;11557;50.884;4.322;2022-11-24T04:32:30;9.40;99.90
22781;DHT22;11557;50.884;4.322;2022-11-24T04:34:55;9.70;99.90
22781;DHT22;11557;50.884;4.322;2022-11-24T04:37:21;10.30;99.90
22781;DHT22;11557;50.884;4.322;2022-11-24T04:39:46;9.60;99.90
22781;DHT22;11557;50.884;4.322;2022-11-24T04:42:12;9.80;99.90
22781;DHT22;11557;50.884;4.322;2022-11-24T04:44:38;9.80;99.90
22781;DHT22;11557;50.884;4.322;2022-11-24T04:47:04;9.80;99.90
22781;DHT22;11557;50.884;4.322;2022-11-24T04:49:30;9.60;99.90
22781;DHT22;11557;50.884;4.322;2022-11-24T04:51:55;9.60;99.90
22781;DHT22;11557;50.884;4.322;2022-11-24T04:54:21;9.80;99.90
22781;DHT22;11557;50.884;4.322;2022-11-24T04:56:50;9.40;99.90
22781;DHT22;11557;50.884;4.322;2022-11-24T04:59:16;9.60;99.90
22781;DHT22;11557;50.884;4.322;2022-11-24T05:01:43;9.50;99.90
22781;DHT22;11557;50.884;4.322;2022-11-24T05:04:10;9.30;99.90
22781;DHT22;11557;50.884;4.322;2022-11-24T05:06:37;9.30;99.90
22781;DHT22;11557;50.884;4.322;2022-11-24T05:09:03;9.20;99.90
22781;DHT22;11557;50.884;4.322;2022-11-24T05:11:28;9.20;99.90
22781;DHT22;11557;50.884;4.322;2022-11-24T05:13:54;9.50;99.90
22781;DHT22;11557;50.884;4.322;2022-11-24T05:16:20;9.50;99.90
22781;DHT22;11557;50.884;4.322;2022-11-24T05:18:45;10.30;99.90
22781;DHT22;11557;50.884;4.322;2022-11-24T05:21:11;9.90;99.90
22781;DHT22;11557;50.884;4.322;2022-11-24T05:23:36;9.90;99.90
22781;DHT22;11557;50.884;4.322;2022-11-24T05:26:02;9.40;99.90
22781;DHT22;11557;50.884;4.322;2022-11-24T05:28:28;9.80;99.90
22781;DHT22;11557;50.884;4.322;2022-11-24T05:30:58;9.00;99.90
22781;DHT22;11557;50.884;4.322;2022-11-24T05:33:23;9.10;99.90
22781;DHT22;11557;50.884;4.322;2022-11-24T05:35:49;9.00;99.90
22781;DHT22;11557;50.884;4.322;2022-11-24T05:38:16;9.00;99.90
22781;DHT22;11557;50.884;4.322;2022-11-24T05:40:42;9.00;99.90
22781;DHT22;11557;50.884;4.322;2022-11-24T05:43:12;9.10;99.90
22781;DHT22;11557;50.884;4.322;2022-11-24T05:45:38;9.40;99.90
22781;DHT22;11557;50.884;4.322;2022-11-24T05:48:06;9.50;99.90
22781;DHT22;11557;50.884;4.322;2022-11-24T05:50:32;9.10;99.90
22781;DHT22;11557;50.884;4.322;2022-11-24T05:53:04;9.10;99.90
22781;DHT22;11557;50.884;4.322;2022-11-24T05:55:29;10.50;99.90
22781;DHT22;11557;50.884;4.322;2022-11-24T05:57:59;9.20;99.90
22781;DHT22;11557;50.884;4.322;2022-11-24T06:00:26;10.10;99.90
22781;DHT22;11557;50.884;4.322;2022-11-24T06:02:52;9.90;99.90
22781;DHT22;11557;50.884;4.322;2022-11-24T06:05:17;9.10;99.90
22781;DHT22;11557;50.884;4.322;2022-11-24T06:07:43;9.80;99.90
22781;DHT22;11557;50.884;4.322;2022-11-24T06:10:08;9.10;99.90
22781;DHT22;11557;50.884;4.322;2022-11-24T06:12:34;10.20;99.90
22781;DHT22;11557;50.884;4.322;2022-11-24T06:15:01;9.70;99.90
22781;DHT22;11557;50.884;4.322;2022-11-24T06:17:27;9.30;99.90
22781;DHT22;11557;50.884;4.322;2022-11-24T06:19:53;9.80;99.90
22781;DHT22;11557;50.884;4.322;2022-11-24T06:22:18;9.30;99.90
22781;DHT22;11557;50.884;4.322;2022-11-24T06:24:44;10.10;99.90
22781;DHT22;11557;50.884;4.322;2022-11-24T06:27:11;9.40;99.90
22781;DHT22;11557;50.884;4.322;2022-11-24T06:29:37;10.10;99.90
22781;DHT22;11557;50.884;4.322;2022-11-24T06:32:03;9.00;99.90
22781;DHT22;11557;50.884;4.322;2022-11-24T06:34:29;8.90;99.90
22781;DHT22;11557;50.884;4.322;2022-11-24T06:36:55;9.80;99.90
22781;DHT22;11557;50.884;4.322;2022-11-24T06:39:20;9.70;99.90
22781;DHT22;11557;50.884;4.322;2022-11-24T06:41:49;9.80;99.90
22781;DHT22;11557;50.884;4.322;2022-11-24T06:44:14;9.10;99.90
22781;DHT22;11557;50.884;4.322;2022-11-24T06:46:40;8.90;99.90
22781;DHT22;11557;50.884;4.322;2022-11-24T06:49:05;8.90;99.90
22781;DHT22;11557;50.884;4.322;2022-11-24T06:51:31;9.50;99.90
22781;DHT22;11557;50.884;4.322;2022-11-24T06:53:58;8.80;99.90
22781;DHT22;11557;50.884;4.322;2022-11-24T06:56:24;8.80;99.90
22781;DHT22;11557;50.884;4.322;2022-11-24T06:58:51;9.80;99.90
22781;DHT22;11557;50.884;4.322;2022-11-24T07:01:22;9.70;99.90
22781;DHT22;11557;50.884;4.322;2022-11-24T07:03:48;9.60;99.90
22781;DHT22;11557;50.884;4.322;2022-11-24T07:06:16;9.60;99.90
22781;DHT22;11557;50.884;4.322;2022-11-24T07:08:42;8.70;99.90
22781;DHT22;11557;50.884;4.322;2022-11-24T07:11:10;10.00;99.90
22781;DHT22;11557;50.884;4.322;2022-11-24T07:13:36;8.70;99.90
22781;DHT22;11557;50.884;4.322;2022-11-24T07:16:21;8.80;99.90
22781;DHT22;11557;50.884;4.322;2022-11-24T07:18:48;8.70;99.90
22781;DHT22;11557;50.884;4.322;2022-11-24T07:21:15;9.40;99.90
22781;DHT22;11557;50.884;4.322;2022-11-24T07:23:41;8.70;99.90
22781;DHT22;11557;50.884;4.322;2022-11-24T07:26:08;8.80;99.90
22781;DHT22;11557;50.884;4.322;2022-11-24T07:28:35;9.50;99.90
22781;DHT22;11557;50.884;4.322;2022-11-24T07:31:11;8.80;99.90
22781;DHT22;11557;50.884;4.322;2022-11-24T07:33:37;9.60;99.90
22781;DHT22;11557;50.884;4.322;2022-11-24T07:36:04;9.10;99.90
22781;DHT22;11557;50.884;4.322;2022-11-24T07:38:30;8.80;99.90
22781;DHT22;11557;50.884;4.322;2022-11-24T07:41:04;9.10;99.90
22781;DHT22;11557;50.884;4.322;2022-11-24T07:43:31;8.70;99.90
22781;DHT22;11557;50.884;4.322;2022-11-24T07:45:57;9.60;99.90
22781;DHT22;11557;50.884;4.322;2022-11-24T07:48:23;9.40;99.90
22781;DHT22;11557;50.884;4.322;2022-11-24T07:50:48;9.60;99.90
22781;DHT22;11557;50.884;4.322;2022-11-24T07:53:14;9.10;99.90
22781;DHT22;11557;50.884;4.322;2022-11-24T07:55:40;8.90;99.90
22781;DHT22;11557;50.884;4.322;2022-11-24T07:58:06;8.80;99.90
22781;DHT22;11557;50.884;4.322;2022-11-24T08:00:32;8.90;99.90
22781;DHT22;11557;50.884;4.322;2022-11-24T08:02:58;8.90;99.90
22781;DHT22;11557;50.884;4.322;2022-11-24T08:05:23;9.70;99.90
22781;DHT22;11557;50.884;4.322;2022-11-24T08:07:49;9.10;99.90
22781;DHT22;11557;50.884;4.322;2022-11-24T08:10:15;9.70;99.90
22781;DHT22;11557;50.884;4.322;2022-11-24T08:12:41;8.90;99.90
22781;DHT22;11557;50.884;4.322;2022-11-24T08:15:07;9.00;99.90
22781;DHT22;11557;50.884;4.322;2022-11-24T08:17:34;9.00;99.90
22781;DHT22;11557;50.884;4.322;2022-11-24T08:20:00;9.10;99.90
22781;DHT22;11557;50.884;4.322;2022-11-24T08:22:25;9.10;99.90
22781;DHT22;11557;50.884;4.322;2022-11-24T08:24:51;9.10;99.90
22781;DHT22;11557;50.884;4.322;2022-11-24T08:27:18;9.00;99.90
22781;DHT22;11557;50.884;4.322;2022-11-24T08:29:44;8.90;99.90
22781;DHT22;11557;50.884;4.322;2022-11-24T08:32:10;8.90;99.90
22781;DHT22;11557;50.884;4.322;2022-11-24T08:34:36;10.20;99.90
22781;DHT22;11557;50.884;4.322;2022-11-24T08:37:03;8.80;99.90
22781;DHT22;11557;50.884;4.322;2022-11-24T08:39:29;9.30;99.90
22781;DHT22;11557;50.884;4.322;2022-11-24T08:41:55;9.20;99.90
22781;DHT22;11557;50.884;4.322;2022-11-24T08:44:21;9.70;99.90
22781;DHT22;11557;50.884;4.322;2022-11-24T08:46:47;9.00;99.90
22781;DHT22;11557;50.884;4.322;2022-11-24T08:49:13;9.00;99.90
22781;DHT22;11557;50.884;4.322;2022-11-24T08:51:39;9.50;99.90
22781;DHT22;11557;50.884;4.322;2022-11-24T08:54:05;9.60;99.90
22781;DHT22;11557;50.884;4.322;2022-11-24T08:56:32;9.90;99.90
22781;DHT22;11557;50.884;4.322;2022-11-24T08:58:58;9.30;99.90
22781;DHT22;11557;50.884;4.322;2022-11-24T09:01:25;9.90;99.90
22781;DHT22;11557;50.884;4.322;2022-11-24T09:03:51;9.40;99.90
22781;DHT22;11557;50.884;4.322;2022-11-24T09:06:18;9.90;99.90
22781;DHT22;11557;50.884;4.322;2022-11-24T09:08:46;10.00;99.90
22781;DHT22;11557;50.884;4.322;2022-11-24T09:11:14;10.30;99.90
22781;DHT22;11557;50.884;4.322;2022-11-24T09:13:41;10.40;99.90
22781;DHT22;11557;50.884;4.322;2022-11-24T09:16:21;10.60;99.90
22781;DHT22;11557;50.884;4.322;2022-11-24T09:19:03;9.80;99.90
22781;DHT22;11557;50.884;4.322;2022-11-24T09:21:29;10.10;99.90
22781;DHT22;11557;50.884;4.322;2022-11-24T09:23:56;9.70;99.90
22781;DHT22;11557;50.884;4.322;2022-11-24T09:26:24;9.60;99.90
22781;DHT22;11557;50.884;4.322;2022-11-24T09:28:51;9.70;99.90
22781;DHT22;11557;50.884;4.322;2022-11-24T09:31:24;10.30;99.90
22781;DHT22;11557;50.884;4.322;2022-11-24T09:33:50;9.80;99.90
22781;DHT22;11557;50.884;4.322;2022-11-24T09:36:17;9.80;99.90
22781;DHT22;11557;50.884;4.322;2022-11-24T09:38:43;11.00;99.90
22781;DHT22;11557;50.884;4.322;2022-11-24T09:47:37;9.90;99.90
22781;DHT22;11557;50.884;4.322;2022-11-24T09:50:15;10.40;99.90
22781;DHT22;11557;50.884;4.322;2022-11-24T09:53:01;11.50;99.90
22781;DHT22;11557;50.884;4.322;2022-11-24T09:55:44;13.20;99.90
22781;DHT22;11557;50.884;4.322;2022-11-24T09:58:56;14.20;99.90
22781;DHT22;11557;50.884;4.322;2022-11-24T10:00:57;14.20;99.90
22781;DHT22;11557;50.884;4.322;2022-11-24T10:03:31;14.20;99.90
22781;DHT22;11557;50.884;4.322;2022-11-24T10:05:59;14.50;99.90
22781;DHT22;11557;50.884;4.322;2022-11-24T10:11:37;14.90;99.90
22781;DHT22;11557;50.884;4.322;2022-11-24T10:14:37;15.10;99.90
22781;DHT22;11557;50.884;4.322;2022-11-24T10:20:04;14.60;99.90
22781;DHT22;11557;50.884;4.322;2022-11-24T10:26:15;13.80;99.90
22781;DHT22;11557;50.884;4.322;2022-11-24T10:28:42;14.10;99.90
22781;DHT22;11557;50.884;4.322;2022-11-24T10:31:28;14.40;99.90
22781;DHT22;11557;50.884;4.322;2022-11-24T10:34:15;14.70;99.90
22781;DHT22;11557;50.884;4.322;2022-11-24T10:45:05;15.10;99.90
22781;DHT22;11557;50.884;4.322;2022-11-24T10:47:33;14.90;99.90
22781;DHT22;11557;50.884;4.322;2022-11-24T10:50:18;14.50;99.90
22781;DHT22;11557;50.884;4.322;2022-11-24T10:56:10;14.30;99.90
22781;DHT22;11557;50.884;4.322;2022-11-24T10:58:37;14.00;99.90
22781;DHT22;11557;50.884;4.322;2022-11-24T11:03:47;15.10;99.90
22781;DHT22;11557;50.884;4.322;2022-11-24T11:06:20;13.80;99.90
22781;DHT22;11557;50.884;4.322;2022-11-24T11:08:46;13.50;99.90
22781;DHT22;11557;50.884;4.322;2022-11-24T11:11:18;13.90;99.90
22781;DHT22;11557;50.884;4.322;2022-11-24T11:13:51;13.40;99.90
22781;DHT22;11557;50.884;4.322;2022-11-24T11:16:51;13.30;99.90
22781;DHT22;11557;50.884;4.322;2022-11-24T11:19:41;13.10;99.90
22781;DHT22;11557;50.884;4.322;2022-11-24T11:24:43;12.80;99.90
22781;DHT22;11557;50.884;4.322;2022-11-24T11:27:20;13.00;99.90
22781;DHT22;11557;50.884;4.322;2022-11-24T11:29:46;13.10;99.90
22781;DHT22;11557;50.884;4.322;2022-11-24T11:34:44;13.00;99.90
22781;DHT22;11557;50.884;4.322;2022-11-24T11:37:12;13.20;99.90
22781;DHT22;11557;50.884;4.322;2022-11-24T11:39:45;12.80;99.90
22781;DHT22;11557;50.884;4.322;2022-11-24T11:42:37;12.90;99.90
22781;DHT22;11557;50.884;4.322;2022-11-24T11:45:17;13.00;99.90
22781;DHT22;11557;50.884;4.322;2022-11-24T11:50:24;12.70;99.90
22781;DHT22;11557;50.884;4.322;2022-11-24T11:53:04;12.80;99.90
22781;DHT22;11557;50.884;4.322;2022-11-24T11:55:52;13.30;99.90
22781;DHT22;11557;50.884;4.322;2022-11-24T12:13:05;12.60;99.90
22781;DHT22;11557;50.884;4.322;2022-11-24T12:15:47;12.50;99.90
22781;DHT22;11557;50.884;4.322;2022-11-24T12:21:17;12.50;99.90
22781;DHT22;11557;50.884;4.322;2022-11-24T12:26:57;12.40;99.90
22781;DHT22;11557;50.884;4.322;2022-11-24T12:29:43;12.40;99.90
22781;DHT22;11557;50.884;4.322;2022-11-24T12:43:31;12.70;99.90
22781;DHT22;11557;50.884;4.322;2022-11-24T12:46:06;12.80;99.90
22781;DHT22;11557;50.884;4.322;2022-11-24T12:48:52;12.90;99.90
22781;DHT22;11557;50.884;4.322;2022-11-24T12:51:34;12.80;99.90
22781;DHT22;11557;50.884;4.322;2022-11-24T12:54:02;12.90;99.90
22781;DHT22;11557;50.884;4.322;2022-11-24T12:56:52;13.00;99.90
22781;DHT22;11557;50.884;4.322;2022-11-24T12:59:52;13.30;99.90
22781;DHT22;11557;50.884;4.322;2022-11-24T13:05:17;12.80;99.90
22781;DHT22;11557;50.884;4.322;2022-11-24T13:07:47;12.80;99.90
22781;DHT22;11557;50.884;4.322;2022-11-24T13:10:40;12.80;99.90
22781;DHT22;11557;50.884;4.322;2022-11-24T13:13:14;12.80;99.90
22781;DHT22;11557;50.884;4.322;2022-11-24T13:18:41;12.70;99.90
22781;DHT22;11557;50.884;4.322;2022-11-24T13:29:04;12.60;99.90
22781;DHT22;11557;50.884;4.322;2022-11-24T13:31:30;12.50;99.90
22781;DHT22;11557;50.884;4.322;2022-11-24T13:33:56;12.60;99.90
22781;DHT22;11557;50.884;4.322;2022-11-24T13:38:52;12.60;99.90
22781;DHT22;11557;50.884;4.322;2022-11-24T13:49:39;12.40;99.90
22781;DHT22;11557;50.884;4.322;2022-11-24T13:57:54;12.30;99.90
22781;DHT22;11557;50.884;4.322;2022-11-24T14:00:29;12.30;99.90
22781;DHT22;11557;50.884;4.322;2022-11-24T14:03:21;12.30;99.90
22781;DHT22;11557;50.884;4.322;2022-11-24T14:05:52;12.30;99.90
22781;DHT22;11557;50.884;4.322;2022-11-24T14:08:25;12.20;99.90
22781;DHT22;11557;50.884;4.322;2022-11-24T14:10:53;12.30;99.90
22781;DHT22;11557;50.884;4.322;2022-11-24T14:18:38;12.20;99.90
22781;DHT22;11557;50.884;4.322;2022-11-24T14:23:53;12.20;99.90
22781;DHT22;11557;50.884;4.322;2022-11-24T14:26:31;12.10;99.90
22781;DHT22;11557;50.884;4.322;2022-11-24T14:29:17;12.10;99.90
22781;DHT22;11557;50.884;4.322;2022-11-24T14:31:58;12.00;99.90
22781;DHT22;11557;50.884;4.322;2022-11-24T14:34:28;12.00;99.90
22781;DHT22;11557;50.884;4.322;2022-11-24T14:36:55;12.00;99.90
22781;DHT22;11557;50.884;4.322;2022-11-24T14:39:25;12.10;99.90
22781;DHT22;11557;50.884;4.322;2022-11-24T14:42:03;12.00;99.90
22781;DHT22;11557;50.884;4.322;2022-11-24T14:44:33;12.00;99.90
22781;DHT22;11557;50.884;4.322;2022-11-24T14:47:04;12.40;99.90
22781;DHT22;11557;50.884;4.322;2022-11-24T14:49:32;12.10;99.90
22781;DHT22;11557;50.884;4.322;2022-11-24T14:52:03;12.10;99.90
22781;DHT22;11557;50.884;4.322;2022-11-24T14:54:33;12.10;99.90
22781;DHT22;11557;50.884;4.322;2022-11-24T14:57:03;12.70;99.90
22781;DHT22;11557;50.884;4.322;2022-11-24T14:59:31;13.40;99.90
22781;DHT22;11557;50.884;4.322;2022-11-24T15:01:59;12.00;99.90
22781;DHT22;11557;50.884;4.322;2022-11-24T15:04:29;12.40;99.90
22781;DHT22;11557;50.884;4.322;2022-11-24T15:07:10;12.70;99.90
22781;DHT22;11557;50.884;4.322;2022-11-24T15:12:11;11.90;99.90
22781;DHT22;11557;50.884;4.322;2022-11-24T15:14:50;11.90;99.90
22781;DHT22;11557;50.884;4.322;2022-11-24T15:17:21;11.80;99.90
22781;DHT22;11557;50.884;4.322;2022-11-24T15:19:51;12.30;99.90
22781;DHT22;11557;50.884;4.322;2022-11-24T15:22:40;12.20;99.90
22781;DHT22;11557;50.884;4.322;2022-11-24T15:25:29;11.60;99.90
22781;DHT22;11557;50.884;4.322;2022-11-24T15:27:55;11.80;99.90
22781;DHT22;11557;50.884;4.322;2022-11-24T15:30:21;11.70;99.90
22781;DHT22;11557;50.884;4.322;2022-11-24T15:32:54;11.70;99.90
22781;DHT22;11557;50.884;4.322;2022-11-24T15:35:25;11.70;99.90
22781;DHT22;11557;50.884;4.322;2022-11-24T15:37:52;11.70;99.90
22781;DHT22;11557;50.884;4.322;2022-11-24T15:40:18;11.70;99.90
22781;DHT22;11557;50.884;4.322;2022-11-24T15:42:55;11.80;99.90
22781;DHT22;11557;50.884;4.322;2022-11-24T15:45:23;11.80;99.90
22781;DHT22;11557;50.884;4.322;2022-11-24T15:47:49;11.60;99.90
22781;DHT22;11557;50.884;4.322;2022-11-24T15:50:15;12.60;99.90
22781;DHT22;11557;50.884;4.322;2022-11-24T15:52:41;11.60;99.90
22781;DHT22;11557;50.884;4.322;2022-11-24T15:55:18;11.40;99.90
22781;DHT22;11557;50.884;4.322;2022-11-24T15:57:44;11.30;99.90
22781;DHT22;11557;50.884;4.322;2022-11-24T16:00:15;11.90;99.90
22781;DHT22;11557;50.884;4.322;2022-11-24T16:02:41;11.30;99.90
22781;DHT22;11557;50.884;4.322;2022-11-24T16:05:07;11.20;99.90
22781;DHT22;11557;50.884;4.322;2022-11-24T16:07:33;11.20;99.90
22781;DHT22;11557;50.884;4.322;2022-11-24T16:09:58;11.10;99.90
22781;DHT22;11557;50.884;4.322;2022-11-24T16:12:24;11.20;99.90
22781;DHT22;11557;50.884;4.322;2022-11-24T16:14:50;11.80;99.90
22781;DHT22;11557;50.884;4.322;2022-11-24T16:17:15;11.40;99.90
22781;DHT22;11557;50.884;4.322;2022-11-24T16:19:41;11.00;99.90
22781;DHT22;11557;50.884;4.322;2022-11-24T16:22:06;11.10;99.90
22781;DHT22;11557;50.884;4.322;2022-11-24T16:24:32;11.90;99.90
22781;DHT22;11557;50.884;4.322;2022-11-24T16:26:58;10.90;99.90
22781;DHT22;11557;50.884;4.322;2022-11-24T16:29:23;10.90;99.90
22781;DHT22;11557;50.884;4.322;2022-11-24T16:31:53;11.00;99.90
22781;DHT22;11557;50.884;4.322;2022-11-24T16:34:19;11.10;99.90
22781;DHT22;11557;50.884;4.322;2022-11-24T16:36:44;11.90;99.90
22781;DHT22;11557;50.884;4.322;2022-11-24T16:39:10;11.00;99.90
22781;DHT22;11557;50.884;4.322;2022-11-24T16:41:36;10.90;99.90
22781;DHT22;11557;50.884;4.322;2022-11-24T16:44:01;11.80;99.90
22781;DHT22;11557;50.884;4.322;2022-11-24T16:46:27;10.80;99.90
22781;DHT22;11557;50.884;4.322;2022-11-24T16:48:54;10.80;99.90
22781;DHT22;11557;50.884;4.322;2022-11-24T16:51:22;10.80;99.90
22781;DHT22;11557;50.884;4.322;2022-11-24T16:53:50;11.40;99.90
22781;DHT22;11557;50.884;4.322;2022-11-24T16:56:20;10.70;99.90
22781;DHT22;11557;50.884;4.322;2022-11-24T16:58:46;10.70;99.90
22781;DHT22;11557;50.884;4.322;2022-11-24T17:01:12;11.30;99.90
22781;DHT22;11557;50.884;4.322;2022-11-24T17:03:38;11.20;99.90
22781;DHT22;11557;50.884;4.322;2022-11-24T17:06:06;11.90;99.90
22781;DHT22;11557;50.884;4.322;2022-11-24T17:08:36;10.60;99.90
22781;DHT22;11557;50.884;4.322;2022-11-24T17:11:11;10.60;99.90
22781;DHT22;11557;50.884;4.322;2022-11-24T17:13:37;10.60;99.90
22781;DHT22;11557;50.884;4.322;2022-11-24T17:16:08;10.50;99.90
22781;DHT22;11557;50.884;4.322;2022-11-24T17:18:35;10.40;99.90
22781;DHT22;11557;50.884;4.322;2022-11-24T17:21:01;10.40;99.90
22781;DHT22;11557;50.884;4.322;2022-11-24T17:23:27;10.40;99.90
22781;DHT22;11557;50.884;4.322;2022-11-24T17:25:53;10.40;99.90
22781;DHT22;11557;50.884;4.322;2022-11-24T17:28:19;10.40;99.90
22781;DHT22;11557;50.884;4.322;2022-11-24T17:30:45;10.30;99.90
22781;DHT22;11557;50.884;4.322;2022-11-24T17:33:10;11.00;99.90
22781;DHT22;11557;50.884;4.322;2022-11-24T17:35:36;10.30;99.90
22781;DHT22;11557;50.884;4.322;2022-11-24T17:38:02;10.40;99.90
22781;DHT22;11557;50.884;4.322;2022-11-24T17:40:28;10.40;99.90